This site, now in its 15th season, is a labour of love and fun from one of Ottawa's most avid time trialists and number crunchers. It adheres to and is permitted by the laws of Canada, promotes the objectives of every bicycle club whose results are shown, and is donated free of charge by myself for your enjoyment and usage. If you would like results from series you ride in to be shown here, give me (celia@drmath.ca) a shout!


Index Page
ATT OTT WTT CFCTT VVVTT
Help resultformat:
Case-sensitive

OBC Open TT Series - 2002-Jul-25 - 15km (Rockliffe Pkwy) (EvtFactor = 0.9370)

Weather (18:00): Mostly Cloudy. Temp.: 23°C, Humidity 47%, Humidex 25°C, Pressure: 102.2kPa, Wind: E 13km/h.
Weather (19:00): Mostly Cloudy. Temp.: 22°C, Humidity 52%, Humidex 25°C, Pressure: 102.1kPa, Wind: E 9km/h.

Send photos with description (when/where/what) of yourself on or off of bike to celia@drmath.ca

 
 

BESTS?
 
1 Fillion, Aaron  OBC 19:53 45.264 1/62 SEM 1/8 1.0642
2 Brooks, James OBC 20:26 44.046 2/62 VAM 1/10 1.0000
3 Burge, Craig  WQW 20:42 43.478 3/62 VBM 1/16 1.0317
4 Sudac, Rick  OBC 20:57 42.959 4/62 VCM 1/6 0.9669
5 Johnson, Jamie OBC 21:04 42.722 5/62 VAM 2/10 1.0507
6 Campbell, Colin  OBC 21:06 42.654 6/62 VBM 2/16 1.0902
7 Graves, Kevin OBC 21:12 42.453 7/62 SEM 2/8 1.0024
8 Weiser, Paul OBC 21:44 41.411 8/62 VCM 2/6 1.0046
9 Hamilton, Peter --- 21:54 41.096 9/62 VAM 3/10  
10 Redshaw, Russ  OBC 22:04 40.785 10/62 VBM 3/16 1.1496
11 Field, Kevin OBC 22:15 40.449 11/62 VAM 4/10 0.9085
12 Brown, Greg OBC 22:16 40.419 12/62 VCM 3/6 0.9865
13 Macknie, Chris  OBC 22:26 40.119 13/62 VAM 5/10 0.9779
14 Kerckhoff, Hermann  OBC 22:33 39.911 14/62 VDM 1/4 0.9498
Morvan, Jacques  OBC 22:33 39.911 14/62 VCM 4/6 1.0565
16 Gustavsson, Robert OBC 22:38 39.764 16/62 CAM 1/2 0.9824
17 McMillan, Brent OBC 22:41 39.677 17/62 SEM 3/8 1.0067
18 Hicks, Bob  OBC 22:46 39.531 18/62 VCM 5/6 1.0650
19 Tilden, Charles --- 22:47 39.503 19/62 JUM 1/2 1.1233
20 Martignago, Mike OBC 22:49 39.445 20/62 VBM 4/16  
21 Shrive, Graham OBC 22:52 39.359 21/62 SEM 4/8 0.9591
22 Coldwell, Michael  OBC 23:01 39.102 22/62 VBM 5/16 1.0263
O'Blenes, Paul OBC 23:01 39.102 22/62 VBM 5/16 0.9530
24 Burdett, Avery  OBC 23:16 38.682 24/62 VDM 2/4 0.9535
Czaban, Stefan  OBC 23:16 38.682 24/62 SEM 5/8 0.9308
26 Clarke, Shawn ABC 23:20 38.571 26/62 CAM 2/2 0.9207
St-Amour, Pierre OBC 23:20 38.571 26/62 VBM 7/16 1.0000
28 Fontaine, Randy OBC 23:29 38.325 28/62 VAM 6/10 1.0410
29 James, Peter OBC 23:30 38.298 29/62 VBM 8/16 1.0042
Maly, Peter OBC 23:30 38.298 29/62 SEM 6/8 1.0236
31 Revesz, Erika  OBC 23:33 38.217 31/62 VBF 1/4 0.9852
32 McKay, Allison  OBC 23:38 38.082 32/62 VAF 1/4 0.9481
33 Hall, David  OBC 23:39 38.055 33/62 VBM 9/16 1.0235
Taylor, Chris OBC 23:39 38.055 33/62 VBM 9/16 1.0451
35 Stephenson, Jennifer  OBC 23:43 37.948 35/62 SEF 1/3 0.9895
36 Smeulders, Paul OBC 23:44 37.921 36/62 VAM 7/10 1.0384
37 LaVictoire, Pierre --- 23:49 37.789 37/62 VBM 11/16  
38 Wright, Eric OBC 23:56 37.604 38/62 VAM 8/10 0.9792
39 McTavish, Megan --- 24:08 37.293 39/62 SEF 2/3  
40 Ménard-Kilrane, René OBC 24:12 37.190 40/62 JUM 2/2 0.9979
41 Thibault, Jean-Pierre OBC 24:18 37.037 41/62 SEM 7/8 1.0545
42 Wolfson, Lynne OBC 24:21 36.961 42/62 SEF 3/3 0.9065
43 Radford, Normand OBC 24:23 36.910 43/62 VBM 12/16 0.9755
44 McKay, Andrea  OBC 24:33 36.660 44/62 VAF 2/4 0.9738
45 Beaton, Dale OBC 24:37 36.561 45/62 MIM 1/1 1.0517
46 Wassenaar, Richard OBC 24:49 36.266 46/62 SEM 8/8 1.1172
47 Aimers, Julia OBC 24:52 36.193 47/62 VAF 3/4 0.9583
48 Gordon, Allison --- 25:01 35.976 48/62 VBF 2/4  
49 Leduc, Larry OBC 25:20 35.526 49/62 VCM 6/6 0.9862
50 Chlebek, Robert OBC 25:27 35.363 50/62 VDM 3/4 0.9901
51 Gormley, Bryan --- 25:30 35.294 51/62 VAM 9/10  
52 Chenier, Carl OBC 25:36 35.156 52/62 VAM 10/10 0.7768
53 Ajersch, Mary  OBC 25:38 35.111 53/62 VDF 1/1 1.0157
54 Cameron, Allen  OBC 25:41 35.042 54/62 VBM 13/16 0.9673
55 Barnett, David OBC/ABC 25:50 34.839 55/62 VDM 4/4 1.0039
56 McLaughlin, Brian OBC 26:37 33.813 56/62 VBM 14/16  
57 Stang, Phil OBC 27:41 32.511 57/62 VBM 15/16  
58 Wright, Geoffrey  OBC 28:09 31.972 58/62 VEM 1/1  
59 Bell, Donna Lee OBC 28:33 31.524 59/62 VAF 4/4 0.9249
60 McInnis, Celia 
"Look, Ma - No Chain! - 13km bike, 2km run"
OBC 29:51 30.151 60/62 VBF 3/4 0.6137
61 Cornish, Jane OBC 30:01 29.983 61/62 VBF 4/4  
62 Austen, Ian 
(pedal broke at the farthest place from home!)
OBC DNF   62/62 VBM 16/16  
 
Average Speed of all of the above 61 finishes (915km in 24:14:10):37.754
>>>Average of the Average Speeds for these 61 finishes38.026<<<
 

The number of data records shown above is 62
The server processing of your query took: 0 wallclock secs ( 0.18 usr + 0.02 sys = 0.20 CPU)

Thanks to our Helpers: Mary Ajersch, Denis Fairhead, Jim Glover, Leona Gray, Sabrina Howe, Mike Lau, Celia McInnis, Alex McKnight, Jean-David Messier.

     


Mar 29 (Good Friday)
May 2 May 7 (10km) May 9 May 14 (10km) (cancelled) May 16 May 21 May 21 (10km) May 23 May 26 (40km) May 28 May 28 (10km) May 30
Jun 4 Jun 4 Jun 6 Jun 11 (cancelled) Jun 11 Jun 13 Jun 18 (40km) Jun 18 Jun 20 Jun 25 Jun 25 Jun 27
Jul 2 Jul 2 Jul 4 Jul 7 (40km) Jul 9 Jul 9 Jul 11 Jul 16 Jul 16 Jul 18 Jul 23 Jul 23
  Jul 25  
Jul 30 Jul 30
Aug 1 Aug 6 Aug 6 Aug 8 Aug 13 Aug 13 Aug 15 Aug 18 (40km) Aug 20 Aug 20 Aug 22 Aug 27 Aug 27 (Invitational) Aug 29
Sep 3 Sep 5 (Age-Handicapped) Sep 8 (40km) Sep 10 Sep 12 Sep 17 Sep 19 Sep 24

OTT Rankings
Best       Best by category
WTT Rankings for OBC Members
5 Best 15km     5 Best 15km by category
OBC Member Best Three 15km Rankings
Overall     by category
OBC BAR Ranking
Overall     by category     Rider "Consistency-Graph"
ABC BAR Ranking
Overall     by category     Rider "Consistency-Graph"
Other years
TT Calculator All TT People All TT events
ABC Home VVV Home
CKAP GOLD MEDAL
Other Links

Please send your comments and suggestions to: Celia McInnis
Copyright © 1998-2011 Celia McInnis. All rights reserved. Links are welcomed.